Time;durP1;ratioP1;P1;durP2;ratioP2;P2;SDS_P1;SDS_P2;PMS_P1;PMS_P2;Temp;Humidity;BMP_temperature;BMP_pressure;BME280_temperature;BME280_humidity;BME280_pressure;Samples;Min_cycle;Max_cycle;Signal;HPM_P1;HPM_P2
2021/09/04 00:01:43;;;;;;;0.50;0.50;;;20.00;66.10;;;;;;5022065;28;20601;-76
2021/09/04 00:04:10;;;;;;;0.00;0.00;;;20.00;66.20;;;;;;5022261;28;20258;-76
2021/09/04 00:06:37;;;;;;;0.00;0.00;;;20.00;66.10;;;;;;5025154;28;20226;-77
2021/09/04 00:09:04;;;;;;;0.00;0.00;;;20.00;66.00;;;;;;5021810;28;20239;-76
2021/09/04 00:11:32;;;;;;;0.00;0.00;;;19.90;65.90;;;;;;5021784;28;20216;-76
2021/09/04 00:13:59;;;;;;;0.00;0.00;;;19.90;66.00;;;;;;5025592;28;20210;-76
2021/09/04 00:16:26;;;;;;;0.57;0.57;;;19.90;66.00;;;;;;5031661;28;20284;-76
2021/09/04 00:18:53;;;;;;;0.00;0.00;;;19.80;66.10;;;;;;5023758;28;20510;-76
2021/09/04 00:21:20;;;;;;;0.00;0.00;;;19.80;66.30;;;;;;5022865;28;20614;-76
2021/09/04 00:23:47;;;;;;;0.00;0.00;;;19.80;66.50;;;;;;5025582;28;20212;-76
2021/09/04 00:26:14;;;;;;;0.10;0.10;;;19.70;66.60;;;;;;5022515;28;20219;-76
2021/09/04 00:28:42;;;;;;;0.10;0.10;;;19.70;66.60;;;;;;5024708;28;20250;-76
2021/09/04 00:31:10;;;;;;;0.00;0.00;;;19.70;66.80;;;;;;5021700;28;20223;-76
2021/09/04 00:33:37;;;;;;;0.10;0.10;;;19.60;67.10;;;;;;5013760;28;20208;-77
2021/09/04 00:36:04;;;;;;;0.00;0.00;;;19.60;67.10;;;;;;5017245;28;20326;-76
2021/09/04 00:38:31;;;;;;;0.10;0.10;;;19.50;67.00;;;;;;5018192;28;20240;-77
2021/09/04 00:40:58;;;;;;;0.10;0.10;;;19.50;67.00;;;;;;5023949;28;20212;-76
2021/09/04 00:43:25;;;;;;;0.00;0.00;;;19.50;67.30;;;;;;5024308;28;20211;-76
2021/09/04 00:45:52;;;;;;;0.10;0.10;;;19.40;67.30;;;;;;5022677;28;20698;-76
2021/09/04 00:48:19;;;;;;;0.07;0.07;;;19.40;67.40;;;;;;5020561;28;20223;-76
2021/09/04 00:50:47;;;;;;;0.07;0.07;;;19.40;67.60;;;;;;5030828;28;20222;-76
2021/09/04 00:53:14;;;;;;;0.10;0.10;;;19.40;67.60;;;;;;5025689;28;20300;-76
2021/09/04 00:55:42;;;;;;;0.10;0.10;;;19.30;67.50;;;;;;5021746;28;20624;-76
2021/09/04 00:58:09;;;;;;;0.20;0.20;;;19.30;67.50;;;;;;5025952;28;20215;-76
2021/09/04 01:00:36;;;;;;;0.30;0.30;;;19.20;67.50;;;;;;5024861;28;20294;-76
2021/09/04 01:03:03;;;;;;;0.10;0.10;;;19.30;67.70;;;;;;5020153;28;20303;-76
2021/09/04 01:05:30;;;;;;;0.00;0.00;;;19.20;67.90;;;;;;5024591;28;20628;-76
2021/09/04 01:07:57;;;;;;;0.00;0.00;;;19.10;67.70;;;;;;5024269;28;20253;-76
2021/09/04 01:10:26;;;;;;;0.03;0.03;;;19.00;67.60;;;;;;5020680;28;20249;-76
2021/09/04 01:12:53;;;;;;;0.00;0.00;;;19.00;67.70;;;;;;5022383;28;20395;-76
2021/09/04 01:15:20;;;;;;;0.10;0.10;;;19.00;68.00;;;;;;5021563;28;20231;-76
2021/09/04 01:17:47;;;;;;;0.47;0.47;;;18.90;68.00;;;;;;5022023;28;20528;-75
2021/09/04 01:20:16;;;;;;;0.10;0.10;;;18.90;68.20;;;;;;5021222;28;20203;-79
2021/09/04 01:22:43;;;;;;;0.10;0.10;;;18.90;68.30;;;;;;5023723;28;20199;-76
2021/09/04 01:25:14;;;;;;;0.00;0.00;;;18.90;68.50;;;;;;5024406;28;20214;-76
2021/09/04 01:27:41;;;;;;;0.00;0.00;;;18.90;68.50;;;;;;5023863;28;20203;-76
2021/09/04 01:30:10;;;;;;;0.10;0.10;;;18.90;68.80;;;;;;5026662;28;20806;-76
2021/09/04 01:32:38;;;;;;;0.00;0.00;;;18.80;68.80;;;;;;5022891;28;20677;-76
2021/09/04 01:35:11;;;;;;;0.10;0.10;;;18.80;69.10;;;;;;5024755;28;20227;-76
2021/09/04 01:37:39;;;;;;;0.53;0.53;;;18.80;69.40;;;;;;5020528;28;20211;-76
2021/09/04 01:40:10;;;;;;;0.00;0.00;;;18.80;69.60;;;;;;5021076;28;20546;-76
2021/09/04 01:42:38;;;;;;;0.10;0.10;;;18.80;69.50;;;;;;5012395;28;20564;-76
2021/09/04 01:45:07;;;;;;;0.10;0.10;;;18.80;69.40;;;;;;5023298;28;20222;-76
2021/09/04 01:47:34;;;;;;;0.97;0.97;;;18.70;69.40;;;;;;5021403;28;20601;-76
2021/09/04 01:50:03;;;;;;;0.10;0.10;;;18.60;69.50;;;;;;5023091;28;20246;-76
2021/09/04 01:52:30;;;;;;;0.00;0.00;;;18.50;69.60;;;;;;5021003;28;20223;-76
2021/09/04 01:54:58;;;;;;;0.17;0.17;;;18.40;69.90;;;;;;5021769;28;20274;-76
2021/09/04 01:57:25;;;;;;;0.10;0.10;;;18.40;70.40;;;;;;5022832;28;20211;-76
2021/09/04 01:59:53;;;;;;;0.00;0.00;;;18.40;70.60;;;;;;5022141;28;20666;-76
2021/09/04 02:02:21;;;;;;;0.10;0.10;;;18.30;70.60;;;;;;5021612;28;20211;-76
2021/09/04 02:04:48;;;;;;;0.60;0.60;;;18.30;70.70;;;;;;5023530;28;20286;-77
2021/09/04 02:07:15;;;;;;;0.10;0.10;;;18.30;70.80;;;;;;5011849;28;20215;-75
2021/09/04 02:09:42;;;;;;;0.10;0.10;;;18.20;71.30;;;;;;5015141;28;20223;-76
2021/09/04 02:12:09;;;;;;;0.20;0.20;;;18.10;71.60;;;;;;5024995;28;20289;-76
2021/09/04 02:14:36;;;;;;;0.00;0.00;;;18.10;72.40;;;;;;5012127;28;20318;-76
2021/09/04 02:17:03;;;;;;;0.10;0.10;;;18.00;71.90;;;;;;5016446;28;20212;-76
2021/09/04 02:19:30;;;;;;;0.10;0.10;;;18.10;72.00;;;;;;5017374;28;20215;-76
2021/09/04 02:21:57;;;;;;;0.00;0.00;;;18.00;72.00;;;;;;5016710;28;20215;-76
2021/09/04 02:24:25;;;;;;;0.00;0.00;;;18.00;71.90;;;;;;5019889;28;20219;-76
2021/09/04 02:26:52;;;;;;;0.77;0.23;;;18.00;72.40;;;;;;5020892;28;20222;-76
2021/09/04 02:29:19;;;;;;;0.20;0.20;;;18.00;73.20;;;;;;5021877;28;20262;-76
2021/09/04 02:31:46;;;;;;;0.00;0.00;;;17.90;73.10;;;;;;5020381;28;20208;-76
2021/09/04 02:34:13;;;;;;;0.57;0.57;;;17.90;73.00;;;;;;5023259;28;20591;-76
2021/09/04 02:36:41;;;;;;;0.10;0.10;;;17.80;73.00;;;;;;5021288;28;20299;-76
2021/09/04 02:39:08;;;;;;;0.10;0.10;;;17.80;72.90;;;;;;5019497;28;20585;-76
2021/09/04 02:41:35;;;;;;;0.00;0.00;;;17.80;73.30;;;;;;5020221;28;20211;-76
2021/09/04 02:44:02;;;;;;;0.77;0.77;;;17.80;73.60;;;;;;5022913;28;20565;-77
2021/09/04 02:46:29;;;;;;;0.00;0.00;;;17.80;73.70;;;;;;5019625;28;20215;-76
2021/09/04 02:48:56;;;;;;;0.10;0.10;;;17.80;73.80;;;;;;5022069;28;20214;-76
2021/09/04 02:51:23;;;;;;;0.00;0.00;;;17.80;74.10;;;;;;5021003;28;20231;-77
2021/09/04 02:53:51;;;;;;;0.10;0.10;;;17.80;74.10;;;;;;5020500;28;20308;-76
2021/09/04 02:56:18;;;;;;;0.10;0.10;;;17.70;74.00;;;;;;5021808;28;20231;-76
2021/09/04 02:58:45;;;;;;;0.00;0.00;;;17.80;74.00;;;;;;5022591;28;20218;-77
2021/09/04 03:01:12;;;;;;;0.10;0.10;;;17.80;74.10;;;;;;5018913;28;20714;-76
2021/09/04 03:03:39;;;;;;;0.10;0.10;;;17.80;73.90;;;;;;5023104;28;20290;-76
2021/09/04 03:06:07;;;;;;;0.10;0.10;;;17.70;73.70;;;;;;5018377;28;20215;-76
2021/09/04 03:08:35;;;;;;;0.10;0.10;;;17.70;73.80;;;;;;5013650;28;20222;-76
2021/09/04 03:11:05;;;;;;;0.00;0.00;;;17.70;73.80;;;;;;5023134;28;20649;-76
2021/09/04 03:13:32;;;;;;;0.13;0.13;;;17.70;74.00;;;;;;5020862;28;20880;-76
2021/09/04 03:16:00;;;;;;;0.00;0.00;;;17.70;74.20;;;;;;5022709;28;20284;-76
2021/09/04 03:18:28;;;;;;;0.07;0.07;;;17.60;74.40;;;;;;5024239;28;20529;-77
2021/09/04 03:20:55;;;;;;;0.10;0.10;;;17.50;74.50;;;;;;5023936;28;20636;-76
2021/09/04 03:23:22;;;;;;;0.17;0.17;;;17.50;74.70;;;;;;5024576;28;20219;-76
2021/09/04 03:25:48;;;;;;;0.20;0.20;;;17.40;74.70;;;;;;5022655;28;20211;-76
2021/09/04 03:28:16;;;;;;;0.00;0.00;;;17.40;74.70;;;;;;5025307;28;20215;-76
2021/09/04 03:30:43;;;;;;;0.10;0.10;;;17.50;74.80;;;;;;5022509;28;20219;-76
2021/09/04 03:33:11;;;;;;;0.00;0.00;;;17.50;74.80;;;;;;5014957;28;20220;-77
2021/09/04 03:35:38;;;;;;;0.00;0.00;;;17.50;74.80;;;;;;5014334;28;20698;-76
2021/09/04 03:38:05;;;;;;;0.10;0.10;;;17.50;74.80;;;;;;5014395;28;20259;-76
2021/09/04 03:40:32;;;;;;;0.10;0.10;;;17.40;74.80;;;;;;5017320;28;20285;-76
2021/09/04 03:42:59;;;;;;;0.00;0.00;;;17.50;75.00;;;;;;5014868;28;20273;-76
2021/09/04 03:45:26;;;;;;;0.10;0.10;;;17.40;75.00;;;;;;5019234;28;20281;-76
2021/09/04 03:47:53;;;;;;;0.00;0.00;;;17.40;75.00;;;;;;5024181;28;20631;-76
2021/09/04 03:50:21;;;;;;;0.10;0.10;;;17.40;75.50;;;;;;5024490;28;20218;-76
2021/09/04 03:52:48;;;;;;;0.10;0.10;;;17.30;75.40;;;;;;5023474;28;20215;-76
2021/09/04 03:55:15;;;;;;;0.10;0.10;;;17.30;75.40;;;;;;5024947;28;20231;-76
2021/09/04 03:57:42;;;;;;;0.00;0.00;;;17.20;75.50;;;;;;5026114;28;20611;-76
2021/09/04 04:00:10;;;;;;;0.00;0.00;;;17.20;75.60;;;;;;5025827;28;20298;-76
2021/09/04 04:02:37;;;;;;;0.10;0.10;;;17.20;75.60;;;;;;5013964;28;20262;-76
2021/09/04 04:05:04;;;;;;;0.10;0.10;;;17.30;75.70;;;;;;5017999;28;20239;-76
2021/09/04 04:07:32;;;;;;;0.00;0.00;;;17.30;75.80;;;;;;5013808;28;20211;-76
2021/09/04 04:09:59;;;;;;;0.37;0.37;;;17.30;75.80;;;;;;5023117;28;20203;-76
2021/09/04 04:12:28;;;;;;;0.10;0.10;;;17.30;75.90;;;;;;5033472;28;20681;-76
2021/09/04 04:14:55;;;;;;;0.10;0.10;;;17.30;75.90;;;;;;5024088;28;20207;-76
2021/09/04 04:17:22;;;;;;;0.20;0.20;;;17.20;76.00;;;;;;5023213;28;20233;-76
2021/09/04 04:19:49;;;;;;;0.10;0.10;;;17.20;76.30;;;;;;5024672;28;20212;-77
2021/09/04 04:22:19;;;;;;;0.10;0.10;;;17.20;76.30;;;;;;5022229;28;20207;-76
2021/09/04 04:24:46;;;;;;;0.20;0.20;;;17.10;76.40;;;;;;5025389;28;20215;-77
2021/09/04 04:27:13;;;;;;;1.20;1.00;;;17.10;76.60;;;;;;5012824;28;20215;-76
2021/09/04 04:29:42;;;;;;;0.10;0.10;;;17.10;76.70;;;;;;5013987;28;20247;-76
2021/09/04 04:32:08;;;;;;;0.07;0.07;;;17.10;76.80;;;;;;5013613;28;20251;-77
2021/09/04 04:34:36;;;;;;;0.17;0.17;;;17.10;76.80;;;;;;5014906;28;20255;-76
2021/09/04 04:37:04;;;;;;;0.00;0.00;;;17.10;76.80;;;;;;5022660;28;20239;-76
2021/09/04 04:39:31;;;;;;;0.10;0.10;;;17.10;76.90;;;;;;5021375;28;20243;-76
2021/09/04 04:41:58;;;;;;;0.40;0.40;;;17.10;76.80;;;;;;5020726;28;20215;-76
2021/09/04 04:44:25;;;;;;;0.10;0.10;;;17.20;77.00;;;;;;5023806;28;20223;-76
2021/09/04 04:46:52;;;;;;;0.10;0.10;;;17.20;77.00;;;;;;5022621;28;20230;-76
2021/09/04 04:49:19;;;;;;;0.20;0.20;;;17.20;77.20;;;;;;5024389;28;20227;-76
2021/09/04 04:51:46;;;;;;;0.10;0.10;;;17.20;77.40;;;;;;5021477;28;20215;-76
2021/09/04 04:54:14;;;;;;;0.10;0.10;;;17.20;77.50;;;;;;5025395;28;20214;-76
2021/09/04 04:56:40;;;;;;;0.00;0.00;;;17.20;77.60;;;;;;5015692;28;20242;-76
2021/09/04 04:59:08;;;;;;;0.10;0.10;;;17.20;77.70;;;;;;5024514;28;20222;-77
2021/09/04 05:01:34;;;;;;;0.10;0.10;;;17.30;77.70;;;;;;5023388;28;20246;-77
2021/09/04 05:04:05;;;;;;;0.10;0.10;;;17.30;77.50;;;;;;5021824;28;20254;-77
2021/09/04 05:06:32;;;;;;;0.10;0.10;;;17.30;77.30;;;;;;5021960;28;20215;-76
2021/09/04 05:08:58;;;;;;;0.00;0.00;;;17.40;77.40;;;;;;5020192;28;20222;-76
2021/09/04 05:11:26;;;;;;;0.20;0.20;;;17.40;77.40;;;;;;5020777;28;20211;-76
2021/09/04 05:13:53;;;;;;;0.20;0.20;;;17.50;77.50;;;;;;5023712;28;20210;-76
2021/09/04 05:16:20;;;;;;;0.00;0.00;;;17.50;77.50;;;;;;5021119;28;20294;-76
2021/09/04 05:18:48;;;;;;;0.33;0.33;;;17.60;77.70;;;;;;5023309;28;20207;-76
2021/09/04 05:21:15;;;;;;;0.10;0.10;;;17.70;77.80;;;;;;5020864;28;20222;-76
2021/09/04 05:23:42;;;;;;;0.20;0.20;;;17.90;77.60;;;;;;5012952;28;20219;-76
2021/09/04 05:26:10;;;;;;;0.00;0.00;;;18.20;77.90;;;;;;5016375;28;20207;-76
2021/09/04 05:28:37;;;;;;;0.63;0.63;;;18.50;76.80;;;;;;5012668;28;20224;-76
2021/09/04 05:31:04;;;;;;;0.00;0.00;;;18.70;76.10;;;;;;5017150;28;20596;-76
2021/09/04 05:33:32;;;;;;;1.03;0.67;;;18.90;75.50;;;;;;5012534;28;20566;-76
2021/09/04 05:35:59;;;;;;;0.00;0.00;;;19.00;75.20;;;;;;5019066;28;20224;-76
2021/09/04 05:38:26;;;;;;;0.10;0.10;;;19.10;75.00;;;;;;5017284;28;20261;-76
2021/09/04 05:40:54;;;;;;;0.00;0.00;;;19.10;74.90;;;;;;5022888;28;20215;-77
2021/09/04 05:43:20;;;;;;;0.00;0.00;;;19.20;75.00;;;;;;5021830;28;20216;-77
2021/09/04 05:45:48;;;;;;;0.10;0.10;;;19.20;74.80;;;;;;5024125;28;20226;-77
2021/09/04 05:48:15;;;;;;;0.10;0.10;;;19.30;74.70;;;;;;5023007;28;20298;-77
2021/09/04 05:50:43;;;;;;;0.00;0.00;;;19.50;74.60;;;;;;5020199;28;20289;-76
2021/09/04 05:53:10;;;;;;;0.10;0.10;;;19.60;74.30;;;;;;5019632;28;20219;-76
2021/09/04 05:55:37;;;;;;;0.20;0.20;;;19.80;74.10;;;;;;5023346;28;20234;-77
2021/09/04 05:58:04;;;;;;;0.10;0.10;;;19.90;74.00;;;;;;5024158;28;20565;-77
2021/09/04 06:00:31;;;;;;;0.10;0.10;;;20.10;73.80;;;;;;5020913;28;20629;-77
2021/09/04 06:02:59;;;;;;;0.00;0.00;;;20.30;73.60;;;;;;5028722;28;20203;-77
2021/09/04 06:05:26;;;;;;;0.10;0.10;;;20.50;73.50;;;;;;5021726;28;20701;-77
2021/09/04 06:07:53;;;;;;;0.03;0.03;;;20.80;73.40;;;;;;5022236;28;20211;-77
2021/09/04 06:10:20;;;;;;;0.10;0.10;;;21.00;73.00;;;;;;5019727;28;20215;-77
2021/09/04 06:12:47;;;;;;;0.10;0.10;;;21.30;72.50;;;;;;5022680;28;20215;-77
2021/09/04 06:15:15;;;;;;;0.23;0.23;;;21.60;71.90;;;;;;5020738;28;20212;-77
2021/09/04 06:17:42;;;;;;;0.00;0.00;;;21.80;71.00;;;;;;5023146;28;20389;-77
2021/09/04 06:20:10;;;;;;;0.67;0.67;;;22.10;70.00;;;;;;5024078;28;20207;-77
2021/09/04 06:22:37;;;;;;;0.10;0.10;;;22.30;69.30;;;;;;5019123;28;20207;-77
2021/09/04 06:25:05;;;;;;;0.10;0.10;;;22.40;68.70;;;;;;5024114;28;20622;-77
2021/09/04 06:27:33;;;;;;;0.30;0.30;;;22.60;67.90;;;;;;5022381;28;20227;-77
2021/09/04 06:30:01;;;;;;;0.70;0.70;;;22.70;67.20;;;;;;5021597;28;20282;-77
2021/09/04 06:32:28;;;;;;;0.00;0.00;;;22.90;66.50;;;;;;5020752;28;20309;-77
2021/09/04 06:34:55;;;;;;;0.10;0.10;;;23.10;65.90;;;;;;5023095;28;20603;-77
2021/09/04 06:37:23;;;;;;;0.00;0.00;;;23.20;65.20;;;;;;5021077;28;20296;-78
2021/09/04 06:39:50;;;;;;;0.00;0.00;;;23.30;64.50;;;;;;5019198;28;20708;-77
2021/09/04 06:42:18;;;;;;;0.20;0.20;;;23.50;64.10;;;;;;5020474;28;20267;-76
2021/09/04 06:44:45;;;;;;;0.20;0.20;;;23.60;63.40;;;;;;5022688;28;20215;-76
2021/09/04 06:47:12;;;;;;;0.10;0.10;;;23.70;62.90;;;;;;5023596;28;20565;-77
2021/09/04 06:49:39;;;;;;;0.00;0.00;;;23.90;62.50;;;;;;5021372;28;20274;-77
2021/09/04 06:52:06;;;;;;;0.00;0.00;;;24.00;61.90;;;;;;5026548;28;20207;-76
2021/09/04 06:54:33;;;;;;;0.10;0.10;;;24.10;61.20;;;;;;5024359;28;20223;-77
2021/09/04 06:57:02;;;;;;;0.10;0.10;;;24.30;60.60;;;;;;5024962;28;20317;-77
2021/09/04 06:59:29;;;;;;;0.20;0.20;;;24.40;60.30;;;;;;5025349;28;20266;-77
2021/09/04 07:01:56;;;;;;;0.60;0.60;;;24.50;59.90;;;;;;5024896;28;20245;-78
2021/09/04 07:04:24;;;;;;;0.30;0.30;;;24.40;59.70;;;;;;5025631;28;20224;-77
2021/09/04 07:06:51;;;;;;;0.07;0.07;;;24.30;59.80;;;;;;5024360;28;20216;-77
2021/09/04 07:09:18;;;;;;;0.20;0.20;;;24.20;60.00;;;;;;5033691;28;20221;-77
2021/09/04 07:11:45;;;;;;;0.03;0.03;;;24.30;59.80;;;;;;5023208;28;20219;-77
2021/09/04 07:14:12;;;;;;;0.00;0.00;;;24.50;59.50;;;;;;5027094;28;20211;-77
2021/09/04 07:16:39;;;;;;;0.00;0.00;;;24.50;59.20;;;;;;5021804;28;20232;-77
2021/09/04 07:19:06;;;;;;;0.00;0.00;;;24.40;59.30;;;;;;5025499;28;20243;-77
2021/09/04 07:21:33;;;;;;;0.00;0.00;;;24.30;59.60;;;;;;5023249;28;20274;-77
2021/09/04 07:24:01;;;;;;;0.00;0.00;;;24.20;59.70;;;;;;5025784;28;20230;-77
2021/09/04 07:26:27;;;;;;;0.10;0.10;;;24.10;59.70;;;;;;5022876;28;20223;-77
2021/09/04 07:28:54;;;;;;;0.10;0.10;;;24.10;59.70;;;;;;5025301;28;20229;-77
2021/09/04 07:31:22;;;;;;;0.10;0.10;;;24.10;59.80;;;;;;5024531;28;20299;-77
2021/09/04 07:33:49;;;;;;;0.10;0.10;;;24.30;59.40;;;;;;5023497;28;20230;-76
2021/09/04 07:36:16;;;;;;;0.00;0.00;;;24.50;59.00;;;;;;5026147;28;20610;-76
2021/09/04 07:38:43;;;;;;;0.30;0.30;;;24.50;58.30;;;;;;5025380;28;20247;-76
2021/09/04 07:41:11;;;;;;;0.10;0.10;;;24.50;58.30;;;;;;5022253;28;20674;-76
2021/09/04 07:43:38;;;;;;;0.00;0.00;;;24.40;58.40;;;;;;5023030;28;20223;-76
2021/09/04 07:46:05;;;;;;;0.00;0.00;;;24.50;58.40;;;;;;5022072;28;20559;-76
2021/09/04 07:48:32;;;;;;;0.27;0.27;;;24.50;58.10;;;;;;5025996;28;20219;-76
2021/09/04 07:50:59;;;;;;;0.10;0.10;;;24.50;58.00;;;;;;5023060;28;20666;-76
2021/09/04 07:53:27;;;;;;;0.10;0.10;;;24.50;57.90;;;;;;5024400;28;20215;-76
2021/09/04 07:55:54;;;;;;;0.00;0.00;;;24.60;57.90;;;;;;5022510;28;20603;-76
2021/09/04 07:58:21;;;;;;;0.10;0.10;;;24.70;57.80;;;;;;5028015;28;20564;-76
2021/09/04 08:00:48;;;;;;;0.00;0.00;;;24.70;57.70;;;;;;5024037;28;20216;-76
2021/09/04 08:03:15;;;;;;;0.00;0.00;;;24.70;57.60;;;;;;5025268;28;20565;-76
2021/09/04 08:05:43;;;;;;;0.10;0.10;;;24.80;57.40;;;;;;5023105;28;20238;-76
2021/09/04 08:08:09;;;;;;;0.10;0.10;;;24.90;57.30;;;;;;5024300;28;20230;-76
2021/09/04 08:10:38;;;;;;;0.00;0.00;;;25.00;57.20;;;;;;5029111;28;20218;-76
2021/09/04 08:13:05;;;;;;;0.67;0.67;;;25.00;57.00;;;;;;5026201;28;20310;-76
2021/09/04 08:15:33;;;;;;;0.10;0.10;;;25.00;56.90;;;;;;5013742;28;20227;-76
2021/09/04 08:18:00;;;;;;;0.17;0.17;;;25.10;56.90;;;;;;5014336;28;20564;-76
2021/09/04 08:20:27;;;;;;;0.00;0.00;;;25.20;56.80;;;;;;5014001;28;20303;-77
2021/09/04 08:22:54;;;;;;;0.20;0.20;;;25.50;56.40;;;;;;5014018;28;20386;-77
2021/09/04 08:25:21;;;;;;;0.10;0.10;;;25.90;55.80;;;;;;5013608;28;20628;-77
2021/09/04 08:27:49;;;;;;;0.30;0.30;;;26.30;54.90;;;;;;5013526;28;20224;-77
2021/09/04 08:30:16;;;;;;;0.00;0.00;;;26.80;54.20;;;;;;5035566;28;20373;-77
2021/09/04 08:32:43;;;;;;;0.30;0.30;;;27.30;52.90;;;;;;5023095;28;20215;-77
2021/09/04 08:35:10;;;;;;;0.23;0.23;;;27.60;52.50;;;;;;5025461;28;20222;-77
2021/09/04 08:37:41;;;;;;;0.00;0.00;;;28.00;52.00;;;;;;5022058;28;20267;-77
2021/09/04 08:40:10;;;;;;;0.10;0.10;;;28.40;51.40;;;;;;5023357;28;20450;-77
2021/09/04 08:42:37;;;;;;;0.10;0.10;;;28.70;50.80;;;;;;5021746;28;20216;-77
2021/09/04 08:45:05;;;;;;;0.10;0.10;;;29.00;50.40;;;;;;5024574;28;20272;-77
2021/09/04 08:47:32;;;;;;;0.00;0.00;;;29.20;50.00;;;;;;5022089;28;20222;-77
2021/09/04 08:50:00;;;;;;;0.10;0.10;;;29.20;50.20;;;;;;5022630;28;20222;-77
2021/09/04 08:52:29;;;;;;;0.00;0.00;;;29.50;49.70;;;;;;5022336;28;20247;-77
2021/09/04 08:54:56;;;;;;;0.10;0.10;;;29.80;49.10;;;;;;5022652;28;20217;-77
2021/09/04 08:57:23;;;;;;;0.10;0.10;;;29.90;48.20;;;;;;5024622;28;20286;-76
2021/09/04 08:59:53;;;;;;;0.10;0.10;;;29.90;48.20;;;;;;5023854;28;20257;-76
2021/09/04 09:02:29;;;;;;;0.00;0.00;;;29.70;48.00;;;;;;5020752;28;20216;-77
2021/09/04 09:05:02;;;;;;;0.00;0.00;;;29.60;48.20;;;;;;5027679;28;20306;-77
2021/09/04 09:07:45;;;;;;;0.20;0.20;;;29.60;48.40;;;;;;5021834;28;20678;-77
2021/09/04 09:10:38;;;;;;;0.73;0.60;;;29.60;48.40;;;;;;5020886;28;20223;-77
2021/09/04 09:13:06;;;;;;;0.00;0.00;;;29.60;48.00;;;;;;5022333;28;20226;-77
2021/09/04 09:15:37;;;;;;;1.03;0.73;;;29.50;47.10;;;;;;5022893;28;20619;-77
2021/09/04 09:18:13;;;;;;;0.10;0.10;;;29.30;47.60;;;;;;5024804;28;20239;-77
2021/09/04 09:20:42;;;;;;;0.10;0.10;;;29.20;48.00;;;;;;5023583;28;20223;-77
2021/09/04 09:23:10;;;;;;;0.10;0.10;;;29.10;48.10;;;;;;5021301;28;20211;-77
2021/09/04 09:25:38;;;;;;;0.00;0.00;;;29.10;48.20;;;;;;5023893;28;20634;-77
2021/09/04 09:28:17;;;;;;;0.10;0.10;;;29.00;48.00;;;;;;5022033;28;20246;-77
2021/09/04 09:30:52;;;;;;;0.00;0.00;;;29.00;48.00;;;;;;5020405;28;20678;-77
2021/09/04 09:33:21;;;;;;;0.20;0.20;;;28.90;48.10;;;;;;5025636;28;20215;-77
2021/09/04 09:35:51;;;;;;;0.10;0.10;;;28.80;46.80;;;;;;5023093;28;20238;-77
2021/09/04 09:38:30;;;;;;;0.30;0.30;;;28.60;47.50;;;;;;5022240;28;20717;-77
2021/09/04 09:40:59;;;;;;;0.33;0.33;;;28.50;46.50;;;;;;5019294;28;20211;-77
2021/09/04 09:43:32;;;;;;;1.03;0.60;;;28.30;46.70;;;;;;5024603;28;20211;-76
2021/09/04 09:46:04;;;;;;;0.03;0.03;;;28.00;47.10;;;;;;5022662;28;20237;-76
2021/09/04 09:48:34;;;;;;;0.67;0.67;;;27.90;47.70;;;;;;5021745;28;20223;-76
2021/09/04 09:51:03;;;;;;;0.00;0.00;;;27.90;47.90;;;;;;5023402;28;20308;-76
2021/09/04 09:53:32;;;;;;;0.37;0.37;;;27.90;47.90;;;;;;5019390;28;20694;-77
2021/09/04 09:56:00;;;;;;;0.00;0.00;;;28.10;47.90;;;;;;5022444;28;20219;-77
2021/09/04 09:58:29;;;;;;;0.03;0.03;;;28.20;47.60;;;;;;5021461;28;20706;-76
2021/09/04 10:00:57;;;;;;;0.00;0.00;;;28.40;47.50;;;;;;5022305;28;20207;-77
2021/09/04 10:03:27;;;;;;;0.60;0.60;;;28.70;46.80;;;;;;5022246;28;20219;-77
2021/09/04 10:05:55;;;;;;;0.00;0.00;;;28.90;46.20;;;;;;5021015;28;20618;-77
2021/09/04 10:08:24;;;;;;;0.00;0.00;;;28.90;45.40;;;;;;5023101;28;20628;-77
2021/09/04 10:10:52;;;;;;;0.00;0.00;;;29.10;45.40;;;;;;5019524;28;20235;-76
2021/09/04 10:13:20;;;;;;;0.10;0.10;;;29.40;45.50;;;;;;5019393;28;20242;-76
2021/09/04 10:15:51;;;;;;;0.00;0.00;;;29.60;45.10;;;;;;5022210;28;20294;-76
2021/09/04 10:18:23;;;;;;;0.87;0.87;;;29.80;43.80;;;;;;5021353;28;20239;-77
2021/09/04 10:21:12;;;;;;;0.30;0.30;;;29.80;44.20;;;;;;5025680;28;20266;-77
2021/09/04 10:23:51;;;;;;;0.10;0.10;;;30.10;43.70;;;;;;5020731;28;20270;-77
2021/09/04 10:26:28;;;;;;;0.40;0.40;;;30.40;43.30;;;;;;5023588;28;20207;-76
2021/09/04 10:29:14;;;;;;;0.10;0.10;;;30.40;41.90;;;;;;5025421;28;20215;-76
2021/09/04 10:31:56;;;;;;;0.10;0.10;;;30.20;42.80;;;;;;5022987;28;20642;-76
2021/09/04 10:34:28;;;;;;;0.00;0.00;;;30.10;42.90;;;;;;5024053;28;20223;-76
2021/09/04 10:37:01;;;;;;;0.00;0.00;;;30.20;42.60;;;;;;5034087;28;20320;-76
2021/09/04 10:39:55;;;;;;;0.10;0.10;;;30.10;42.80;;;;;;5023374;28;20247;-76
2021/09/04 10:42:31;;;;;;;0.00;0.00;;;30.00;42.10;;;;;;5024390;28;20227;-76
2021/09/04 10:45:10;;;;;;;0.10;0.10;;;29.70;42.10;;;;;;5025143;28;20210;-76
2021/09/04 10:47:57;;;;;;;0.00;0.00;;;29.30;42.30;;;;;;5023573;28;20742;-76
2021/09/04 10:50:31;;;;;;;0.80;0.80;;;29.20;43.20;;;;;;5024156;28;20274;-76
2021/09/04 10:53:07;;;;;;;0.10;0.10;;;29.40;43.00;;;;;;5024304;28;20215;-76
2021/09/04 10:55:39;;;;;;;0.10;0.10;;;29.50;41.70;;;;;;5024685;28;20226;-76
2021/09/04 10:58:13;;;;;;;0.30;0.30;;;29.50;42.80;;;;;;5030229;28;20257;-76
2021/09/04 11:00:49;;;;;;;0.00;0.00;;;29.50;42.00;;;;;;5038615;28;20208;-76
2021/09/04 11:03:18;;;;;;;0.00;0.00;;;29.80;41.40;;;;;;5025685;28;20544;-76
2021/09/04 11:05:56;;;;;;;0.00;0.00;;;30.10;41.40;;;;;;5024629;28;20219;-76
2021/09/04 11:08:32;;;;;;;0.00;0.00;;;30.30;41.10;;;;;;5022770;28;20351;-77
2021/09/04 11:11:39;;;;;;;0.00;0.00;;;30.30;40.80;;;;;;5022890;28;20238;-77
2021/09/04 11:14:18;;;;;;;0.10;0.10;;;30.40;40.80;;;;;;5032715;28;20393;-77
2021/09/04 11:16:48;;;;;;;0.10;0.10;;;30.30;39.70;;;;;;5032179;28;20219;-77
2021/09/04 11:19:33;;;;;;;0.30;0.30;;;30.10;39.90;;;;;;5028631;28;20208;-77
2021/09/04 11:22:06;;;;;;;0.40;0.40;;;30.10;40.10;;;;;;5024141;28;20222;-77
2021/09/04 11:24:38;;;;;;;0.73;0.53;;;29.90;39.60;;;;;;5025769;28;20207;-77
2021/09/04 11:27:12;;;;;;;0.00;0.00;;;29.90;40.40;;;;;;5022977;28;20230;-76
2021/09/04 11:29:49;;;;;;;0.00;0.00;;;30.10;41.20;;;;;;5023660;28;20695;-77
2021/09/04 11:32:19;;;;;;;0.10;0.10;;;30.30;41.30;;;;;;5025517;28;20219;-76
2021/09/04 11:34:51;;;;;;;0.00;0.00;;;30.50;41.20;;;;;;5026459;28;20222;-76
2021/09/04 11:37:22;;;;;;;0.10;0.10;;;30.70;41.30;;;;;;5025236;28;20542;-76
2021/09/04 11:39:56;;;;;;;0.07;0.07;;;30.80;41.30;;;;;;5022141;28;20244;-76
2021/09/04 11:42:27;;;;;;;0.10;0.10;;;31.00;41.30;;;;;;5023979;28;20232;-76
2021/09/04 11:44:58;;;;;;;0.00;0.00;;;31.00;41.10;;;;;;5026380;28;20212;-76
2021/09/04 11:47:27;;;;;;;0.27;0.27;;;31.00;41.20;;;;;;5014314;28;20219;-76
2021/09/04 11:49:59;;;;;;;0.20;0.20;;;31.00;41.30;;;;;;5014434;28;20261;-77
2021/09/04 11:52:34;;;;;;;0.00;0.00;;;31.10;40.80;;;;;;5014066;28;20254;-77
2021/09/04 11:55:05;;;;;;;0.57;0.57;;;31.10;40.20;;;;;;5014302;28;20535;-77
2021/09/04 11:57:35;;;;;;;0.00;0.00;;;31.20;40.30;;;;;;5018937;28;20227;-77
2021/09/04 12:00:18;;;;;;;0.00;0.00;;;31.40;39.80;;;;;;5022914;28;20215;-76
2021/09/04 12:02:50;;;;;;;0.10;0.10;;;31.40;39.50;;;;;;5022798;28;20218;-76
2021/09/04 12:05:20;;;;;;;0.00;0.00;;;31.30;39.60;;;;;;5021977;28;20207;-78
2021/09/04 12:07:49;;;;;;;0.10;0.10;;;31.40;38.90;;;;;;5021780;28;20216;-75
2021/09/04 12:10:21;;;;;;;0.00;0.00;;;31.40;38.40;;;;;;5022012;28;20211;-76
2021/09/04 12:13:00;;;;;;;0.00;0.00;;;31.40;38.60;;;;;;5024244;28;20222;-76
2021/09/04 12:15:29;;;;;;;0.20;0.20;;;31.60;38.50;;;;;;5022019;28;20219;-76
2021/09/04 12:17:59;;;;;;;0.27;0.27;;;31.70;37.40;;;;;;5031842;28;20234;-76
2021/09/04 12:20:37;;;;;;;0.00;0.00;;;31.60;37.50;;;;;;5023326;28;20294;-76
2021/09/04 12:23:24;;;;;;;0.10;0.10;;;31.60;38.20;;;;;;5022204;28;20216;-76
2021/09/04 12:26:03;;;;;;;0.10;0.10;;;31.60;38.40;;;;;;5023904;28;20224;-76
2021/09/04 12:28:30;;;;;;;0.00;0.00;;;31.70;39.10;;;;;;5021076;28;20219;-76
2021/09/04 12:31:00;;;;;;;0.20;0.20;;;31.90;38.70;;;;;;5023441;28;20222;-76
2021/09/04 12:33:28;;;;;;;0.20;0.20;;;32.10;38.30;;;;;;5023003;28;20223;-76
2021/09/04 12:35:58;;;;;;;6.70;0.40;;;32.10;37.60;;;;;;5024983;28;20204;-76
2021/09/04 12:38:42;;;;;;;0.10;0.10;;;32.00;37.80;;;;;;5022313;28;20632;-76
2021/09/04 12:41:16;;;;;;;0.00;0.00;;;31.90;37.80;;;;;;5022471;28;20222;-76
2021/09/04 12:43:49;;;;;;;1.50;1.40;;;32.00;37.30;;;;;;5021900;28;20211;-76
2021/09/04 12:46:27;;;;;;;0.30;0.30;;;31.90;37.50;;;;;;5023687;28;20294;-76
2021/09/04 12:48:55;;;;;;;0.00;0.00;;;31.90;37.20;;;;;;5022415;28;20215;-76
2021/09/04 12:51:32;;;;;;;0.00;0.00;;;31.90;37.50;;;;;;5022025;28;20597;-76
2021/09/04 12:54:05;;;;;;;0.10;0.10;;;31.80;37.60;;;;;;5024994;28;20226;-76
2021/09/04 12:56:36;;;;;;;0.10;0.10;;;31.80;37.20;;;;;;5022293;28;20295;-76
2021/09/04 12:59:06;;;;;;;0.20;0.20;;;31.80;37.50;;;;;;5023464;28;20234;-76